sensor_id;sensor_type;location;lat;lon;timestamp;P1;durP1;ratioP1;P2;durP2;ratioP2
2610;SDS011;5612;51.134;17.058;2022-07-23T00:00:39;13.50;;;12.50;;
2610;SDS011;5612;51.134;17.058;2022-07-23T00:03:08;13.10;;;12.10;;
2610;SDS011;5612;51.134;17.058;2022-07-23T00:05:36;13.53;;;12.53;;
2610;SDS011;5612;51.134;17.058;2022-07-23T00:08:05;11.70;;;10.90;;
2610;SDS011;5612;51.134;17.058;2022-07-23T00:10:39;13.13;;;12.20;;
2610;SDS011;5612;51.134;17.058;2022-07-23T00:13:08;14.67;;;13.37;;
2610;SDS011;5612;51.134;17.058;2022-07-23T00:15:38;13.90;;;12.53;;
2610;SDS011;5612;51.134;17.058;2022-07-23T00:18:07;13.50;;;12.30;;
2610;SDS011;5612;51.134;17.058;2022-07-23T00:20:36;13.30;;;12.30;;
2610;SDS011;5612;51.134;17.058;2022-07-23T00:23:05;13.00;;;12.00;;
2610;SDS011;5612;51.134;17.058;2022-07-23T00:25:34;13.57;;;12.57;;
2610;SDS011;5612;51.134;17.058;2022-07-23T00:28:04;14.10;;;13.00;;
2610;SDS011;5612;51.134;17.058;2022-07-23T00:30:33;14.67;;;13.40;;
2610;SDS011;5612;51.134;17.058;2022-07-23T00:33:04;13.10;;;12.10;;
2610;SDS011;5612;51.134;17.058;2022-07-23T00:35:35;13.23;;;12.23;;
2610;SDS011;5612;51.134;17.058;2022-07-23T00:38:07;13.33;;;12.43;;
2610;SDS011;5612;51.134;17.058;2022-07-23T00:40:37;13.70;;;12.70;;
2610;SDS011;5612;51.134;17.058;2022-07-23T00:43:06;13.10;;;12.20;;
2610;SDS011;5612;51.134;17.058;2022-07-23T00:45:35;13.27;;;12.30;;
2610;SDS011;5612;51.134;17.058;2022-07-23T00:48:06;12.50;;;11.60;;
2610;SDS011;5612;51.134;17.058;2022-07-23T00:50:34;12.93;;;11.83;;
2610;SDS011;5612;51.134;17.058;2022-07-23T00:53:03;13.60;;;12.60;;
2610;SDS011;5612;51.134;17.058;2022-07-23T00:55:33;13.77;;;12.67;;
2610;SDS011;5612;51.134;17.058;2022-07-23T00:58:02;14.53;;;13.40;;
2610;SDS011;5612;51.134;17.058;2022-07-23T01:00:30;13.77;;;12.50;;
2610;SDS011;5612;51.134;17.058;2022-07-23T01:02:59;12.50;;;11.60;;
2610;SDS011;5612;51.134;17.058;2022-07-23T01:05:29;13.37;;;12.47;;
2610;SDS011;5612;51.134;17.058;2022-07-23T01:07:58;11.50;;;10.70;;
2610;SDS011;5612;51.134;17.058;2022-07-23T01:10:27;12.80;;;11.90;;
2610;SDS011;5612;51.134;17.058;2022-07-23T01:12:59;12.03;;;11.13;;
2610;SDS011;5612;51.134;17.058;2022-07-23T01:15:30;13.40;;;12.40;;
2610;SDS011;5612;51.134;17.058;2022-07-23T01:17:59;11.57;;;10.70;;
2610;SDS011;5612;51.134;17.058;2022-07-23T01:20:30;12.77;;;11.77;;
2610;SDS011;5612;51.134;17.058;2022-07-23T01:23:00;13.03;;;12.10;;
2610;SDS011;5612;51.134;17.058;2022-07-23T01:25:29;13.80;;;12.37;;
2610;SDS011;5612;51.134;17.058;2022-07-23T01:27:57;12.57;;;11.67;;
2610;SDS011;5612;51.134;17.058;2022-07-23T01:30:26;11.97;;;11.00;;
2610;SDS011;5612;51.134;17.058;2022-07-23T01:32:55;13.03;;;12.07;;
2610;SDS011;5612;51.134;17.058;2022-07-23T01:35:24;11.80;;;10.87;;
2610;SDS011;5612;51.134;17.058;2022-07-23T01:37:53;12.20;;;11.10;;
2610;SDS011;5612;51.134;17.058;2022-07-23T01:40:23;12.80;;;11.80;;
2610;SDS011;5612;51.134;17.058;2022-07-23T01:42:53;12.53;;;11.53;;
2610;SDS011;5612;51.134;17.058;2022-07-23T01:45:21;13.23;;;12.13;;
2610;SDS011;5612;51.134;17.058;2022-07-23T01:47:51;13.83;;;12.67;;
2610;SDS011;5612;51.134;17.058;2022-07-23T01:50:19;13.70;;;12.70;;
2610;SDS011;5612;51.134;17.058;2022-07-23T01:52:48;13.10;;;12.10;;
2610;SDS011;5612;51.134;17.058;2022-07-23T01:55:17;13.33;;;12.23;;
2610;SDS011;5612;51.134;17.058;2022-07-23T01:57:47;13.93;;;12.83;;
2610;SDS011;5612;51.134;17.058;2022-07-23T02:00:15;13.67;;;12.47;;
2610;SDS011;5612;51.134;17.058;2022-07-23T02:02:44;13.80;;;12.70;;
2610;SDS011;5612;51.134;17.058;2022-07-23T02:05:13;13.40;;;12.30;;
2610;SDS011;5612;51.134;17.058;2022-07-23T02:07:42;14.17;;;12.93;;
2610;SDS011;5612;51.134;17.058;2022-07-23T02:10:10;14.47;;;13.30;;
2610;SDS011;5612;51.134;17.058;2022-07-23T02:12:39;15.27;;;13.87;;
2610;SDS011;5612;51.134;17.058;2022-07-23T02:15:09;13.17;;;12.27;;
2610;SDS011;5612;51.134;17.058;2022-07-23T02:17:39;14.13;;;12.90;;
2610;SDS011;5612;51.134;17.058;2022-07-23T02:20:09;14.47;;;13.23;;
2610;SDS011;5612;51.134;17.058;2022-07-23T02:22:38;14.90;;;13.70;;
2610;SDS011;5612;51.134;17.058;2022-07-23T02:25:07;16.30;;;15.03;;
2610;SDS011;5612;51.134;17.058;2022-07-23T02:27:36;15.57;;;14.27;;
2610;SDS011;5612;51.134;17.058;2022-07-23T02:30:05;15.27;;;14.07;;
2610;SDS011;5612;51.134;17.058;2022-07-23T02:32:36;17.00;;;14.30;;
2610;SDS011;5612;51.134;17.058;2022-07-23T02:35:07;14.90;;;13.90;;
2610;SDS011;5612;51.134;17.058;2022-07-23T02:37:36;15.40;;;14.20;;
2610;SDS011;5612;51.134;17.058;2022-07-23T02:40:05;14.43;;;13.43;;
2610;SDS011;5612;51.134;17.058;2022-07-23T02:42:35;15.10;;;13.90;;
2610;SDS011;5612;51.134;17.058;2022-07-23T02:45:04;15.50;;;14.30;;
2610;SDS011;5612;51.134;17.058;2022-07-23T02:47:37;14.10;;;12.97;;
2610;SDS011;5612;51.134;17.058;2022-07-23T02:50:06;15.60;;;14.30;;
2610;SDS011;5612;51.134;17.058;2022-07-23T02:52:35;15.90;;;14.70;;
2610;SDS011;5612;51.134;17.058;2022-07-23T02:55:04;14.17;;;13.17;;
2610;SDS011;5612;51.134;17.058;2022-07-23T02:57:33;14.60;;;13.50;;
2610;SDS011;5612;51.134;17.058;2022-07-23T03:00:03;15.33;;;14.00;;
2610;SDS011;5612;51.134;17.058;2022-07-23T03:02:33;13.87;;;12.77;;
2610;SDS011;5612;51.134;17.058;2022-07-23T03:05:04;15.70;;;14.27;;
2610;SDS011;5612;51.134;17.058;2022-07-23T03:07:33;14.60;;;13.50;;
2610;SDS011;5612;51.134;17.058;2022-07-23T03:10:02;15.03;;;13.63;;
2610;SDS011;5612;51.134;17.058;2022-07-23T03:12:31;14.20;;;13.10;;
2610;SDS011;5612;51.134;17.058;2022-07-23T03:15:00;15.03;;;13.93;;
2610;SDS011;5612;51.134;17.058;2022-07-23T03:17:29;15.70;;;14.60;;
2610;SDS011;5612;51.134;17.058;2022-07-23T03:19:57;15.57;;;13.90;;
2610;SDS011;5612;51.134;17.058;2022-07-23T03:22:27;16.27;;;14.97;;
2610;SDS011;5612;51.134;17.058;2022-07-23T03:24:56;14.40;;;13.20;;
2610;SDS011;5612;51.134;17.058;2022-07-23T03:27:26;16.83;;;14.43;;
2610;SDS011;5612;51.134;17.058;2022-07-23T03:29:56;13.70;;;12.70;;
2610;SDS011;5612;51.134;17.058;2022-07-23T03:32:26;14.70;;;13.50;;
2610;SDS011;5612;51.134;17.058;2022-07-23T03:34:55;13.43;;;12.33;;
2610;SDS011;5612;51.134;17.058;2022-07-23T03:37:24;13.80;;;12.70;;
2610;SDS011;5612;51.134;17.058;2022-07-23T03:39:56;14.73;;;13.63;;
2610;SDS011;5612;51.134;17.058;2022-07-23T03:42:24;13.93;;;12.93;;
2610;SDS011;5612;51.134;17.058;2022-07-23T03:44:53;13.07;;;12.07;;
2610;SDS011;5612;51.134;17.058;2022-07-23T03:47:22;13.40;;;12.20;;
2610;SDS011;5612;51.134;17.058;2022-07-23T03:49:50;13.50;;;12.47;;
2610;SDS011;5612;51.134;17.058;2022-07-23T03:52:19;14.20;;;13.10;;
2610;SDS011;5612;51.134;17.058;2022-07-23T03:54:48;13.90;;;12.90;;
2610;SDS011;5612;51.134;17.058;2022-07-23T03:57:18;15.10;;;13.70;;
2610;SDS011;5612;51.134;17.058;2022-07-23T03:59:47;14.40;;;13.40;;
2610;SDS011;5612;51.134;17.058;2022-07-23T04:02:15;15.43;;;14.23;;
2610;SDS011;5612;51.134;17.058;2022-07-23T04:04:44;15.57;;;14.10;;
2610;SDS011;5612;51.134;17.058;2022-07-23T04:07:13;13.90;;;12.90;;
2610;SDS011;5612;51.134;17.058;2022-07-23T04:09:42;13.70;;;12.67;;
2610;SDS011;5612;51.134;17.058;2022-07-23T04:12:12;14.70;;;13.47;;
2610;SDS011;5612;51.134;17.058;2022-07-23T04:14:42;15.20;;;13.93;;
2610;SDS011;5612;51.134;17.058;2022-07-23T04:17:11;14.10;;;12.87;;
2610;SDS011;5612;51.134;17.058;2022-07-23T04:19:39;14.70;;;13.40;;
2610;SDS011;5612;51.134;17.058;2022-07-23T04:22:10;15.10;;;13.70;;
2610;SDS011;5612;51.134;17.058;2022-07-23T04:24:39;12.47;;;11.57;;
2610;SDS011;5612;51.134;17.058;2022-07-23T04:27:08;12.03;;;11.20;;
2610;SDS011;5612;51.134;17.058;2022-07-23T04:29:37;12.83;;;11.73;;
2610;SDS011;5612;51.134;17.058;2022-07-23T04:32:07;15.20;;;13.80;;
2610;SDS011;5612;51.134;17.058;2022-07-23T04:34:36;12.50;;;11.60;;
2610;SDS011;5612;51.134;17.058;2022-07-23T04:37:04;13.13;;;12.10;;
2610;SDS011;5612;51.134;17.058;2022-07-23T04:39:33;13.97;;;12.97;;
2610;SDS011;5612;51.134;17.058;2022-07-23T04:42:02;14.30;;;13.30;;
2610;SDS011;5612;51.134;17.058;2022-07-23T04:44:31;13.97;;;12.87;;
2610;SDS011;5612;51.134;17.058;2022-07-23T04:47:00;13.43;;;12.33;;
2610;SDS011;5612;51.134;17.058;2022-07-23T04:49:30;12.40;;;11.43;;
2610;SDS011;5612;51.134;17.058;2022-07-23T04:51:59;13.67;;;12.50;;
2610;SDS011;5612;51.134;17.058;2022-07-23T04:54:28;12.80;;;11.80;;
2610;SDS011;5612;51.134;17.058;2022-07-23T04:56:57;13.93;;;12.00;;
2610;SDS011;5612;51.134;17.058;2022-07-23T04:59:25;14.07;;;12.80;;
2610;SDS011;5612;51.134;17.058;2022-07-23T05:01:54;13.57;;;12.30;;
2610;SDS011;5612;51.134;17.058;2022-07-23T05:04:23;13.20;;;12.30;;
2610;SDS011;5612;51.134;17.058;2022-07-23T05:06:53;12.03;;;11.23;;
2610;SDS011;5612;51.134;17.058;2022-07-23T05:09:22;18.80;;;12.87;;
2610;SDS011;5612;51.134;17.058;2022-07-23T05:11:51;11.87;;;10.97;;
2610;SDS011;5612;51.134;17.058;2022-07-23T05:14:19;12.67;;;11.67;;
2610;SDS011;5612;51.134;17.058;2022-07-23T05:16:48;12.43;;;11.63;;
2610;SDS011;5612;51.134;17.058;2022-07-23T05:19:17;14.43;;;12.10;;
2610;SDS011;5612;51.134;17.058;2022-07-23T05:21:50;12.77;;;11.67;;
2610;SDS011;5612;51.134;17.058;2022-07-23T05:24:20;11.30;;;10.50;;
2610;SDS011;5612;51.134;17.058;2022-07-23T05:26:49;12.43;;;11.43;;
2610;SDS011;5612;51.134;17.058;2022-07-23T05:29:18;11.47;;;10.67;;
2610;SDS011;5612;51.134;17.058;2022-07-23T05:31:47;12.80;;;11.80;;
2610;SDS011;5612;51.134;17.058;2022-07-23T05:34:16;10.83;;;10.03;;
2610;SDS011;5612;51.134;17.058;2022-07-23T05:36:44;11.30;;;10.50;;
2610;SDS011;5612;51.134;17.058;2022-07-23T05:39:15;12.13;;;10.97;;
2610;SDS011;5612;51.134;17.058;2022-07-23T05:41:43;12.40;;;11.40;;
2610;SDS011;5612;51.134;17.058;2022-07-23T05:44:12;14.43;;;11.50;;
2610;SDS011;5612;51.134;17.058;2022-07-23T05:46:41;12.27;;;11.37;;
2610;SDS011;5612;51.134;17.058;2022-07-23T05:49:10;12.40;;;11.53;;
2610;SDS011;5612;51.134;17.058;2022-07-23T05:51:39;12.37;;;11.33;;
2610;SDS011;5612;51.134;17.058;2022-07-23T05:54:12;11.97;;;11.07;;
2610;SDS011;5612;51.134;17.058;2022-07-23T05:56:42;12.17;;;11.10;;
2610;SDS011;5612;51.134;17.058;2022-07-23T05:59:11;13.97;;;12.87;;
2610;SDS011;5612;51.134;17.058;2022-07-23T06:01:41;12.67;;;11.77;;
2610;SDS011;5612;51.134;17.058;2022-07-23T06:04:10;13.63;;;12.63;;
2610;SDS011;5612;51.134;17.058;2022-07-23T06:06:39;12.27;;;11.37;;
2610;SDS011;5612;51.134;17.058;2022-07-23T06:09:08;12.83;;;11.90;;
2610;SDS011;5612;51.134;17.058;2022-07-23T06:11:37;10.87;;;9.97;;
2610;SDS011;5612;51.134;17.058;2022-07-23T06:14:07;11.90;;;10.90;;
2610;SDS011;5612;51.134;17.058;2022-07-23T06:16:36;12.03;;;11.03;;
2610;SDS011;5612;51.134;17.058;2022-07-23T06:19:05;12.73;;;11.73;;
2610;SDS011;5612;51.134;17.058;2022-07-23T06:21:34;12.43;;;11.53;;
2610;SDS011;5612;51.134;17.058;2022-07-23T06:24:13;13.53;;;12.47;;
2610;SDS011;5612;51.134;17.058;2022-07-23T06:26:41;12.07;;;11.17;;
2610;SDS011;5612;51.134;17.058;2022-07-23T06:29:12;13.00;;;12.00;;
2610;SDS011;5612;51.134;17.058;2022-07-23T06:31:41;13.60;;;12.60;;
2610;SDS011;5612;51.134;17.058;2022-07-23T06:34:10;13.37;;;12.27;;
2610;SDS011;5612;51.134;17.058;2022-07-23T06:36:39;12.83;;;11.20;;
2610;SDS011;5612;51.134;17.058;2022-07-23T06:39:08;12.23;;;11.20;;
2610;SDS011;5612;51.134;17.058;2022-07-23T06:41:37;11.90;;;10.97;;
2610;SDS011;5612;51.134;17.058;2022-07-23T06:44:06;12.17;;;11.03;;
2610;SDS011;5612;51.134;17.058;2022-07-23T06:46:36;11.90;;;10.87;;
2610;SDS011;5612;51.134;17.058;2022-07-23T06:49:05;12.87;;;11.90;;
2610;SDS011;5612;51.134;17.058;2022-07-23T06:51:34;10.87;;;10.17;;
2610;SDS011;5612;51.134;17.058;2022-07-23T06:54:03;12.80;;;11.70;;
2610;SDS011;5612;51.134;17.058;2022-07-23T06:56:32;12.13;;;11.13;;
2610;SDS011;5612;51.134;17.058;2022-07-23T06:59:01;11.87;;;10.97;;
2610;SDS011;5612;51.134;17.058;2022-07-23T07:01:30;11.87;;;10.90;;
2610;SDS011;5612;51.134;17.058;2022-07-23T07:04:01;10.57;;;9.97;;
2610;SDS011;5612;51.134;17.058;2022-07-23T07:06:30;11.53;;;10.53;;
2610;SDS011;5612;51.134;17.058;2022-07-23T07:08:59;10.37;;;9.77;;
2610;SDS011;5612;51.134;17.058;2022-07-23T07:11:28;11.73;;;10.70;;
2610;SDS011;5612;51.134;17.058;2022-07-23T07:13:57;11.00;;;10.20;;
2610;SDS011;5612;51.134;17.058;2022-07-23T07:16:26;11.00;;;10.10;;
2610;SDS011;5612;51.134;17.058;2022-07-23T07:18:58;10.60;;;9.90;;
2610;SDS011;5612;51.134;17.058;2022-07-23T07:21:29;11.60;;;10.67;;
2610;SDS011;5612;51.134;17.058;2022-07-23T07:23:58;11.03;;;10.33;;
2610;SDS011;5612;51.134;17.058;2022-07-23T07:26:27;12.43;;;11.60;;
2610;SDS011;5612;51.134;17.058;2022-07-23T07:28:57;11.57;;;10.60;;
2610;SDS011;5612;51.134;17.058;2022-07-23T07:31:26;11.40;;;10.60;;
2610;SDS011;5612;51.134;17.058;2022-07-23T07:33:55;12.27;;;11.33;;
2610;SDS011;5612;51.134;17.058;2022-07-23T07:36:26;11.80;;;11.10;;
2610;SDS011;5612;51.134;17.058;2022-07-23T07:38:54;12.90;;;11.90;;
2610;SDS011;5612;51.134;17.058;2022-07-23T07:41:24;12.10;;;11.10;;
2610;SDS011;5612;51.134;17.058;2022-07-23T07:43:53;12.47;;;11.57;;
2610;SDS011;5612;51.134;17.058;2022-07-23T07:46:22;12.20;;;11.30;;
2610;SDS011;5612;51.134;17.058;2022-07-23T07:48:54;12.73;;;11.87;;
2610;SDS011;5612;51.134;17.058;2022-07-23T07:51:24;16.20;;;15.03;;
2610;SDS011;5612;51.134;17.058;2022-07-23T07:53:56;12.50;;;11.50;;
2610;SDS011;5612;51.134;17.058;2022-07-23T07:56:26;12.20;;;11.20;;
2610;SDS011;5612;51.134;17.058;2022-07-23T07:58:55;12.97;;;12.00;;
2610;SDS011;5612;51.134;17.058;2022-07-23T08:01:25;11.23;;;10.23;;
2610;SDS011;5612;51.134;17.058;2022-07-23T08:03:54;12.13;;;11.23;;
2610;SDS011;5612;51.134;17.058;2022-07-23T08:06:25;12.00;;;11.00;;
2610;SDS011;5612;51.134;17.058;2022-07-23T08:08:54;11.17;;;10.37;;
2610;SDS011;5612;51.134;17.058;2022-07-23T08:11:23;12.23;;;11.20;;
2610;SDS011;5612;51.134;17.058;2022-07-23T08:13:52;11.03;;;10.33;;
2610;SDS011;5612;51.134;17.058;2022-07-23T08:16:21;11.03;;;10.23;;
2610;SDS011;5612;51.134;17.058;2022-07-23T08:18:50;12.23;;;11.33;;
2610;SDS011;5612;51.134;17.058;2022-07-23T08:21:19;11.13;;;10.43;;
2610;SDS011;5612;51.134;17.058;2022-07-23T08:23:49;12.07;;;11.37;;
2610;SDS011;5612;51.134;17.058;2022-07-23T08:26:18;13.00;;;12.10;;
2610;SDS011;5612;51.134;17.058;2022-07-23T08:28:47;13.10;;;12.10;;
2610;SDS011;5612;51.134;17.058;2022-07-23T08:31:16;11.23;;;10.47;;
2610;SDS011;5612;51.134;17.058;2022-07-23T08:33:45;11.63;;;10.67;;
2610;SDS011;5612;51.134;17.058;2022-07-23T08:36:14;12.27;;;11.27;;
2610;SDS011;5612;51.134;17.058;2022-07-23T08:38:43;12.90;;;11.90;;
2610;SDS011;5612;51.134;17.058;2022-07-23T08:41:14;12.20;;;11.30;;
2610;SDS011;5612;51.134;17.058;2022-07-23T08:43:44;13.20;;;12.20;;
2610;SDS011;5612;51.134;17.058;2022-07-23T08:46:13;12.80;;;11.90;;
2610;SDS011;5612;51.134;17.058;2022-07-23T08:48:42;12.90;;;11.80;;
2610;SDS011;5612;51.134;17.058;2022-07-23T08:51:11;12.63;;;11.77;;
2610;SDS011;5612;51.134;17.058;2022-07-23T08:53:41;12.93;;;11.80;;
2610;SDS011;5612;51.134;17.058;2022-07-23T08:56:10;11.85;;;10.98;;
2610;SDS011;5612;51.134;17.058;2022-07-23T08:58:41;11.27;;;10.48;;
2610;SDS011;5612;51.134;17.058;2022-07-23T09:01:09;12.63;;;11.77;;
2610;SDS011;5612;51.134;17.058;2022-07-23T09:03:38;12.98;;;11.93;;
2610;SDS011;5612;51.134;17.058;2022-07-23T09:06:07;12.55;;;11.60;;
2610;SDS011;5612;51.134;17.058;2022-07-23T09:08:36;11.88;;;10.98;;
2610;SDS011;5612;51.134;17.058;2022-07-23T09:11:06;14.27;;;13.00;;
2610;SDS011;5612;51.134;17.058;2022-07-23T09:13:37;12.10;;;11.30;;
2610;SDS011;5612;51.134;17.058;2022-07-23T09:16:11;13.77;;;12.40;;
2610;SDS011;5612;51.134;17.058;2022-07-23T09:18:42;11.63;;;10.73;;
2610;SDS011;5612;51.134;17.058;2022-07-23T09:24:02;12.45;;;11.43;;
2610;SDS011;5612;51.134;17.058;2022-07-23T09:26:34;14.68;;;13.48;;
2610;SDS011;5612;51.134;17.058;2022-07-23T09:29:05;12.57;;;11.55;;
2610;SDS011;5612;51.134;17.058;2022-07-23T09:31:47;14.85;;;13.77;;
2610;SDS011;5612;51.134;17.058;2022-07-23T09:34:18;12.10;;;10.88;;
2610;SDS011;5612;51.134;17.058;2022-07-23T09:36:50;12.30;;;11.50;;
2610;SDS011;5612;51.134;17.058;2022-07-23T09:39:27;12.00;;;11.23;;
2610;SDS011;5612;51.134;17.058;2022-07-23T09:41:57;12.93;;;11.85;;
2610;SDS011;5612;51.134;17.058;2022-07-23T09:44:26;12.00;;;11.02;;
2610;SDS011;5612;51.134;17.058;2022-07-23T09:46:59;12.13;;;11.20;;
2610;SDS011;5612;51.134;17.058;2022-07-23T09:49:29;13.23;;;12.13;;
2610;SDS011;5612;51.134;17.058;2022-07-23T09:51:58;14.63;;;11.70;;
2610;SDS011;5612;51.134;17.058;2022-07-23T09:54:32;14.10;;;12.73;;
2610;SDS011;5612;51.134;17.058;2022-07-23T09:57:04;12.10;;;11.20;;
2610;SDS011;5612;51.134;17.058;2022-07-23T09:59:36;12.15;;;11.23;;
2610;SDS011;5612;51.134;17.058;2022-07-23T10:02:09;12.13;;;11.33;;
2610;SDS011;5612;51.134;17.058;2022-07-23T10:04:39;12.13;;;11.10;;
2610;SDS011;5612;51.134;17.058;2022-07-23T10:07:08;11.70;;;10.70;;
2610;SDS011;5612;51.134;17.058;2022-07-23T10:09:38;11.70;;;10.80;;
2610;SDS011;5612;51.134;17.058;2022-07-23T10:12:09;11.30;;;10.50;;
2610;SDS011;5612;51.134;17.058;2022-07-23T10:14:59;12.10;;;10.90;;
2610;SDS011;5612;51.134;17.058;2022-07-23T10:17:29;12.33;;;11.53;;
2610;SDS011;5612;51.134;17.058;2022-07-23T10:19:59;12.73;;;11.83;;
2610;SDS011;5612;51.134;17.058;2022-07-23T10:22:29;12.40;;;11.40;;
2610;SDS011;5612;51.134;17.058;2022-07-23T10:25:10;11.50;;;10.40;;
2610;SDS011;5612;51.134;17.058;2022-07-23T10:27:59;8.87;;;8.27;;
2610;SDS011;5612;51.134;17.058;2022-07-23T10:30:41;9.83;;;9.13;;
2610;SDS011;5612;51.134;17.058;2022-07-23T10:33:26;10.93;;;9.90;;
2610;SDS011;5612;51.134;17.058;2022-07-23T10:36:02;10.53;;;9.73;;
2610;SDS011;5612;51.134;17.058;2022-07-23T10:38:37;8.80;;;8.20;;
2610;SDS011;5612;51.134;17.058;2022-07-23T10:41:11;10.50;;;9.47;;
2610;SDS011;5612;51.134;17.058;2022-07-23T10:43:40;10.57;;;9.77;;
2610;SDS011;5612;51.134;17.058;2022-07-23T10:46:21;10.60;;;9.70;;
2610;SDS011;5612;51.134;17.058;2022-07-23T10:54:45;11.53;;;10.63;;
2610;SDS011;5612;51.134;17.058;2022-07-23T10:57:16;16.23;;;14.00;;
2610;SDS011;5612;51.134;17.058;2022-07-23T11:02:58;12.60;;;11.50;;
2610;SDS011;5612;51.134;17.058;2022-07-23T11:05:41;15.43;;;14.03;;
2610;SDS011;5612;51.134;17.058;2022-07-23T11:08:17;17.07;;;15.53;;
2610;SDS011;5612;51.134;17.058;2022-07-23T11:10:48;15.10;;;13.87;;
2610;SDS011;5612;51.134;17.058;2022-07-23T11:13:29;14.70;;;13.40;;
2610;SDS011;5612;51.134;17.058;2022-07-23T11:16:03;14.47;;;13.37;;
2610;SDS011;5612;51.134;17.058;2022-07-23T11:21:43;14.60;;;13.50;;
2610;SDS011;5612;51.134;17.058;2022-07-23T11:24:14;14.67;;;13.37;;
2610;SDS011;5612;51.134;17.058;2022-07-23T11:26:53;15.27;;;14.07;;
2610;SDS011;5612;51.134;17.058;2022-07-23T11:29:38;15.53;;;14.10;;
2610;SDS011;5612;51.134;17.058;2022-07-23T11:35:21;16.00;;;14.80;;
2610;SDS011;5612;51.134;17.058;2022-07-23T11:38:02;15.60;;;14.40;;
2610;SDS011;5612;51.134;17.058;2022-07-23T11:40:33;17.47;;;15.87;;
2610;SDS011;5612;51.134;17.058;2022-07-23T11:43:03;15.10;;;13.90;;
2610;SDS011;5612;51.134;17.058;2022-07-23T11:45:34;16.50;;;15.20;;
2610;SDS011;5612;51.134;17.058;2022-07-23T11:48:05;16.47;;;15.20;;
2610;SDS011;5612;51.134;17.058;2022-07-23T11:50:37;16.00;;;14.90;;
2610;SDS011;5612;51.134;17.058;2022-07-23T11:53:07;16.60;;;15.50;;
2610;SDS011;5612;51.134;17.058;2022-07-23T11:55:36;16.73;;;15.50;;
2610;SDS011;5612;51.134;17.058;2022-07-23T11:58:05;18.07;;;16.57;;
2610;SDS011;5612;51.134;17.058;2022-07-23T12:00:34;16.70;;;15.37;;
2610;SDS011;5612;51.134;17.058;2022-07-23T12:03:06;16.67;;;15.33;;
2610;SDS011;5612;51.134;17.058;2022-07-23T12:05:36;17.97;;;16.67;;
2610;SDS011;5612;51.134;17.058;2022-07-23T12:08:08;19.57;;;17.97;;
2610;SDS011;5612;51.134;17.058;2022-07-23T12:10:39;17.53;;;16.13;;
2610;SDS011;5612;51.134;17.058;2022-07-23T12:13:10;18.43;;;17.03;;
2610;SDS011;5612;51.134;17.058;2022-07-23T12:15:41;18.00;;;16.40;;
2610;SDS011;5612;51.134;17.058;2022-07-23T12:18:11;16.57;;;15.30;;
2610;SDS011;5612;51.134;17.058;2022-07-23T12:20:45;17.67;;;16.27;;
2610;SDS011;5612;51.134;17.058;2022-07-23T12:23:20;16.43;;;15.00;;
2610;SDS011;5612;51.134;17.058;2022-07-23T12:25:51;15.70;;;14.53;;
2610;SDS011;5612;51.134;17.058;2022-07-23T12:28:21;15.13;;;14.03;;
2610;SDS011;5612;51.134;17.058;2022-07-23T12:30:55;16.23;;;14.93;;
2610;SDS011;5612;51.134;17.058;2022-07-23T12:33:25;14.80;;;13.90;;
2610;SDS011;5612;51.134;17.058;2022-07-23T12:35:56;14.00;;;12.80;;
2610;SDS011;5612;51.134;17.058;2022-07-23T12:38:36;14.00;;;13.07;;
2610;SDS011;5612;51.134;17.058;2022-07-23T12:41:08;12.03;;;11.33;;
2610;SDS011;5612;51.134;17.058;2022-07-23T12:43:38;12.68;;;11.85;;
2610;SDS011;5612;51.134;17.058;2022-07-23T12:46:09;11.73;;;10.93;;
2610;SDS011;5612;51.134;17.058;2022-07-23T12:48:49;11.23;;;10.27;;
2610;SDS011;5612;51.134;17.058;2022-07-23T12:51:21;10.60;;;9.90;;
2610;SDS011;5612;51.134;17.058;2022-07-23T12:53:53;11.57;;;10.75;;
2610;SDS011;5612;51.134;17.058;2022-07-23T12:56:27;10.45;;;9.85;;
2610;SDS011;5612;51.134;17.058;2022-07-23T12:58:58;10.90;;;10.20;;
2610;SDS011;5612;51.134;17.058;2022-07-23T13:01:35;11.13;;;10.32;;
2610;SDS011;5612;51.134;17.058;2022-07-23T13:04:05;10.45;;;9.73;;
2610;SDS011;5612;51.134;17.058;2022-07-23T13:06:40;9.98;;;9.38;;
2610;SDS011;5612;51.134;17.058;2022-07-23T13:09:12;9.70;;;9.00;;
2610;SDS011;5612;51.134;17.058;2022-07-23T13:11:42;10.93;;;10.05;;
2610;SDS011;5612;51.134;17.058;2022-07-23T13:14:13;11.15;;;10.35;;
2610;SDS011;5612;51.134;17.058;2022-07-23T13:16:46;9.43;;;8.75;;
2610;SDS011;5612;51.134;17.058;2022-07-23T13:19:16;10.20;;;9.38;;
2610;SDS011;5612;51.134;17.058;2022-07-23T13:21:46;10.88;;;10.25;;
2610;SDS011;5612;51.134;17.058;2022-07-23T13:24:17;11.55;;;10.75;;
2610;SDS011;5612;51.134;17.058;2022-07-23T13:26:46;9.98;;;9.30;;
2610;SDS011;5612;51.134;17.058;2022-07-23T13:29:18;9.27;;;8.77;;
2610;SDS011;5612;51.134;17.058;2022-07-23T13:31:47;10.20;;;9.60;;
2610;SDS011;5612;51.134;17.058;2022-07-23T13:34:17;9.93;;;9.25;;
2610;SDS011;5612;51.134;17.058;2022-07-23T13:36:46;10.63;;;9.82;;
2610;SDS011;5612;51.134;17.058;2022-07-23T13:39:15;10.85;;;9.98;;
2610;SDS011;5612;51.134;17.058;2022-07-23T13:41:45;10.93;;;10.32;;
2610;SDS011;5612;51.134;17.058;2022-07-23T13:44:16;10.88;;;9.80;;
2610;SDS011;5612;51.134;17.058;2022-07-23T13:46:48;10.80;;;9.98;;
2610;SDS011;5612;51.134;17.058;2022-07-23T13:49:17;11.05;;;10.27;;
2610;SDS011;5612;51.134;17.058;2022-07-23T13:51:47;10.73;;;10.02;;
2610;SDS011;5612;51.134;17.058;2022-07-23T13:54:18;11.88;;;10.98;;
2610;SDS011;5612;51.134;17.058;2022-07-23T13:56:48;12.45;;;11.63;;
2610;SDS011;5612;51.134;17.058;2022-07-23T13:59:17;10.98;;;10.18;;
2610;SDS011;5612;51.134;17.058;2022-07-23T14:01:45;11.07;;;10.38;;
2610;SDS011;5612;51.134;17.058;2022-07-23T14:04:35;10.80;;;10.00;;
2610;SDS011;5612;51.134;17.058;2022-07-23T14:07:04;12.63;;;11.73;;
2610;SDS011;5612;51.134;17.058;2022-07-23T14:09:34;11.48;;;10.80;;
2610;SDS011;5612;51.134;17.058;2022-07-23T14:12:04;10.13;;;9.40;;
2610;SDS011;5612;51.134;17.058;2022-07-23T14:14:34;11.85;;;11.00;;
2610;SDS011;5612;51.134;17.058;2022-07-23T14:17:03;11.88;;;10.98;;
2610;SDS011;5612;51.134;17.058;2022-07-23T14:19:36;11.40;;;10.70;;
2610;SDS011;5612;51.134;17.058;2022-07-23T14:22:05;12.80;;;11.68;;
2610;SDS011;5612;51.134;17.058;2022-07-23T14:24:35;12.82;;;11.77;;
2610;SDS011;5612;51.134;17.058;2022-07-23T14:27:05;12.82;;;11.77;;
2610;SDS011;5612;51.134;17.058;2022-07-23T14:29:34;12.00;;;11.13;;
2610;SDS011;5612;51.134;17.058;2022-07-23T14:32:03;12.85;;;11.88;;
2610;SDS011;5612;51.134;17.058;2022-07-23T14:34:33;11.52;;;10.73;;
2610;SDS011;5612;51.134;17.058;2022-07-23T14:37:04;13.20;;;12.15;;
2610;SDS011;5612;51.134;17.058;2022-07-23T14:39:33;13.55;;;12.52;;
2610;SDS011;5612;51.134;17.058;2022-07-23T14:42:03;13.13;;;12.23;;
2610;SDS011;5612;51.134;17.058;2022-07-23T14:44:33;12.95;;;12.15;;
2610;SDS011;5612;51.134;17.058;2022-07-23T14:47:04;14.52;;;13.30;;
2610;SDS011;5612;51.134;17.058;2022-07-23T14:49:35;13.57;;;12.50;;
2610;SDS011;5612;51.134;17.058;2022-07-23T14:52:04;13.43;;;12.50;;
2610;SDS011;5612;51.134;17.058;2022-07-23T14:54:34;14.57;;;13.47;;
2610;SDS011;5612;51.134;17.058;2022-07-23T14:57:04;13.20;;;12.23;;
2610;SDS011;5612;51.134;17.058;2022-07-23T14:59:36;14.03;;;13.03;;
2610;SDS011;5612;51.134;17.058;2022-07-23T15:02:06;14.03;;;13.03;;
2610;SDS011;5612;51.134;17.058;2022-07-23T15:04:35;13.50;;;12.50;;
2610;SDS011;5612;51.134;17.058;2022-07-23T15:07:04;14.37;;;13.37;;
2610;SDS011;5612;51.134;17.058;2022-07-23T15:09:35;14.20;;;13.20;;
2610;SDS011;5612;51.134;17.058;2022-07-23T15:12:06;13.77;;;12.77;;